createdAt,value
2022-08-02T00:01:47.553Z,99.90
2022-08-02T00:04:15.428Z,99.90
2022-08-02T00:06:44.751Z,99.90
2022-08-02T00:09:12.822Z,99.90
2022-08-02T00:11:40.649Z,99.90
2022-08-02T00:14:11.477Z,99.90
2022-08-02T00:16:39.445Z,99.90
2022-08-02T00:19:07.386Z,99.90
2022-08-02T00:21:35.186Z,99.90
2022-08-02T00:24:27.713Z,99.90
2022-08-02T00:26:50.999Z,99.90
2022-08-02T00:29:18.914Z,99.90
2022-08-02T00:31:46.842Z,99.90
2022-08-02T00:34:28.619Z,99.90
2022-08-02T00:36:59.273Z,99.90
2022-08-02T00:39:34.390Z,99.90
2022-08-02T00:42:03.756Z,99.90
2022-08-02T00:44:31.550Z,99.90
2022-08-02T00:46:59.460Z,99.90
2022-08-02T00:49:27.509Z,99.90
2022-08-02T00:51:55.450Z,99.90
2022-08-02T00:54:23.409Z,99.90
2022-08-02T00:56:51.383Z,99.90
2022-08-02T00:59:22.059Z,99.90
2022-08-02T01:01:55.853Z,99.90
2022-08-02T01:04:30.986Z,99.90
2022-08-02T01:07:13.621Z,99.90
2022-08-02T01:09:43.092Z,99.90
2022-08-02T01:12:12.068Z,99.90
2022-08-02T01:14:41.745Z,99.90
2022-08-02T01:17:26.003Z,99.90
2022-08-02T01:20:13.780Z,99.90
2022-08-02T01:23:02.403Z,99.90
2022-08-02T01:25:49.270Z,99.90
2022-08-02T01:28:17.086Z,99.90
2022-08-02T01:30:45.911Z,99.90
2022-08-02T01:33:17.995Z,99.90
2022-08-02T01:35:51.304Z,99.90
2022-08-02T01:38:34.858Z,99.90
2022-08-02T01:41:06.655Z,99.90
2022-08-02T01:43:35.520Z,99.90
2022-08-02T01:46:04.492Z,99.90
2022-08-02T01:48:33.486Z,99.90
2022-08-02T01:51:02.388Z,99.90
2022-08-02T01:53:31.609Z,99.90
2022-08-02T01:56:00.448Z,99.90
2022-08-02T01:58:30.944Z,99.90
2022-08-02T02:00:59.781Z,99.90
2022-08-02T02:03:30.104Z,99.90
2022-08-02T02:05:58.706Z,99.90
2022-08-02T02:08:32.031Z,99.90
2022-08-02T02:12:12.262Z,99.90
2022-08-02T02:13:48.715Z,99.90
2022-08-02T02:16:16.785Z,99.90
2022-08-02T02:18:45.613Z,99.90
2022-08-02T02:21:14.459Z,99.90
2022-08-02T02:23:42.702Z,99.90
2022-08-02T02:26:12.277Z,99.90
2022-08-02T02:28:41.114Z,99.90
2022-08-02T02:31:10.639Z,99.90
2022-08-02T02:33:45.558Z,99.90
2022-08-02T02:36:15.266Z,99.90
2022-08-02T02:38:43.786Z,99.90
2022-08-02T02:41:11.961Z,99.90
2022-08-02T02:43:40.225Z,99.90
2022-08-02T02:46:08.850Z,99.90
2022-08-02T02:48:37.386Z,99.90
2022-08-02T02:51:08.270Z,99.90
2022-08-02T02:54:31.069Z,99.90
2022-08-02T02:56:30.275Z,99.90
2022-08-02T02:58:58.262Z,99.90
2022-08-02T03:01:55.418Z,99.90
2022-08-02T03:04:17.281Z,99.90
2022-08-02T03:06:46.136Z,99.90
2022-08-02T03:09:16.614Z,99.90
2022-08-02T03:11:44.572Z,99.90
2022-08-02T03:14:13.590Z,99.90
2022-08-02T03:16:51.587Z,99.90
2022-08-02T03:19:20.449Z,99.90
2022-08-02T03:21:49.002Z,99.90
2022-08-02T03:24:28.344Z,99.90
2022-08-02T03:26:56.730Z,99.90
2022-08-02T03:29:24.570Z,99.90
2022-08-02T03:31:52.549Z,99.90
2022-08-02T03:34:20.513Z,99.90
2022-08-02T03:36:49.737Z,99.90
2022-08-02T03:39:18.799Z,99.90
2022-08-02T03:41:46.886Z,99.90
2022-08-02T03:44:15.677Z,99.90
2022-08-02T03:46:44.334Z,99.90
2022-08-02T03:49:12.327Z,99.90
2022-08-02T03:51:40.332Z,99.90
2022-08-02T03:54:08.397Z,99.90
2022-08-02T03:56:36.437Z,99.90
2022-08-02T03:59:08.102Z,99.90
2022-08-02T04:01:35.925Z,99.90
2022-08-02T04:04:03.838Z,99.90
2022-08-02T04:06:31.671Z,99.90
2022-08-02T04:08:59.570Z,99.90
2022-08-02T04:11:33.382Z,99.90
2022-08-02T04:14:11.286Z,99.90
2022-08-02T04:16:43.881Z,99.90
2022-08-02T04:19:14.919Z,99.90
2022-08-02T04:21:51.264Z,99.90
2022-08-02T04:24:26.265Z,99.90
2022-08-02T04:27:06.471Z,99.90
2022-08-02T04:29:47.263Z,99.90
2022-08-02T04:32:15.722Z,99.90
2022-08-02T04:34:54.177Z,99.90
2022-08-02T04:37:35.126Z,99.90
2022-08-02T04:40:03.003Z,99.90
2022-08-02T04:42:30.803Z,99.90
2022-08-02T04:44:59.606Z,99.90
2022-08-02T04:48:02.116Z,99.90
2022-08-02T04:50:15.353Z,99.90
2022-08-02T04:52:45.931Z,99.90
2022-08-02T04:55:13.960Z,99.90
2022-08-02T04:57:57.198Z,99.90
2022-08-02T05:00:25.487Z,99.90
2022-08-02T05:02:53.713Z,99.90
2022-08-02T05:05:21.976Z,99.90
2022-08-02T05:07:49.847Z,99.90
2022-08-02T05:10:17.758Z,99.90
2022-08-02T05:12:45.636Z,99.90
2022-08-02T05:15:14.536Z,99.90
2022-08-02T05:17:47.781Z,99.90
2022-08-02T05:20:36.248Z,99.90
2022-08-02T05:23:04.785Z,99.90
2022-08-02T05:25:32.640Z,99.90
2022-08-02T05:28:00.467Z,99.90
2022-08-02T05:30:28.370Z,99.90
2022-08-02T05:32:56.282Z,99.90
2022-08-02T05:35:24.698Z,99.90
2022-08-02T05:37:53.074Z,99.90
2022-08-02T05:40:25.751Z,99.90
2022-08-02T05:42:54.473Z,99.90
2022-08-02T05:45:22.492Z,99.90
2022-08-02T05:47:50.299Z,99.90
2022-08-02T05:50:18.936Z,99.90
2022-08-02T05:52:48.268Z,99.90
2022-08-02T05:55:20.311Z,99.90
2022-08-02T05:57:57.907Z,99.90
2022-08-02T06:00:27.262Z,99.90
2022-08-02T06:03:06.587Z,99.90
2022-08-02T06:05:41.303Z,99.90
2022-08-02T06:08:11.338Z,99.90
2022-08-02T06:10:41.297Z,99.90
2022-08-02T06:13:14.576Z,99.90
2022-08-02T06:15:52.686Z,99.90
2022-08-02T06:18:28.433Z,99.90
2022-08-02T06:22:34.021Z,99.90
2022-08-02T06:23:57.651Z,99.90
2022-08-02T06:26:29.722Z,99.90
2022-08-02T06:28:58.846Z,99.90
2022-08-02T06:31:26.869Z,99.90
2022-08-02T06:33:54.773Z,99.90
2022-08-02T06:36:25.838Z,99.90
2022-08-02T06:39:09.435Z,99.90
2022-08-02T06:41:43.266Z,99.90
2022-08-02T06:47:13.142Z,99.90
2022-08-02T06:49:52.265Z,99.90
2022-08-02T06:52:29.409Z,99.90
2022-08-02T06:54:58.757Z,99.90
2022-08-02T06:57:27.730Z,99.90
2022-08-02T06:59:55.783Z,99.90
2022-08-02T07:02:23.883Z,99.90
2022-08-02T07:04:51.911Z,99.90
2022-08-02T07:07:19.912Z,99.90
2022-08-02T07:10:00.614Z,99.90
2022-08-02T07:12:33.850Z,99.90
2022-08-02T07:15:02.526Z,99.90
2022-08-02T07:17:30.659Z,99.90
2022-08-02T07:19:58.922Z,99.90
2022-08-02T07:22:27.991Z,99.90
2022-08-02T07:24:57.235Z,99.90
2022-08-02T07:27:25.523Z,99.90
2022-08-02T07:29:53.473Z,99.90
2022-08-02T07:32:26.766Z,99.90
2022-08-02T07:34:55.600Z,99.90
2022-08-02T07:37:35.264Z,99.90
2022-08-02T07:40:15.191Z,99.90
2022-08-02T07:42:49.346Z,99.90
2022-08-02T07:45:17.469Z,99.90
2022-08-02T07:47:45.926Z,99.90
2022-08-02T07:50:14.455Z,99.90
2022-08-02T07:52:42.783Z,99.90
2022-08-02T07:55:11.209Z,99.90
2022-08-02T07:57:45.404Z,99.90
2022-08-02T08:00:14.718Z,99.90
2022-08-02T08:02:42.879Z,99.90
2022-08-02T08:05:10.781Z,99.90
2022-08-02T08:07:39.092Z,99.90
2022-08-02T08:10:07.773Z,99.90
2022-08-02T08:12:36.291Z,99.90
2022-08-02T08:15:05.001Z,99.90
2022-08-02T08:17:32.848Z,99.90
2022-08-02T08:20:00.775Z,99.90
2022-08-02T08:22:28.599Z,99.90
2022-08-02T08:24:56.431Z,99.90
2022-08-02T08:27:24.615Z,99.90
2022-08-02T08:29:52.486Z,99.90
2022-08-02T08:32:20.695Z,99.90
2022-08-02T08:34:49.182Z,99.90
2022-08-02T08:37:18.530Z,99.90
2022-08-02T08:39:58.239Z,99.90
2022-08-02T08:42:28.669Z,99.90
2022-08-02T08:44:58.733Z,99.90
2022-08-02T08:47:45.152Z,99.90
2022-08-02T08:50:21.384Z,99.90
2022-08-02T08:52:57.799Z,99.90
2022-08-02T08:55:27.388Z,99.90
2022-08-02T08:57:55.866Z,99.90
2022-08-02T09:00:23.760Z,99.90
2022-08-02T09:02:51.722Z,99.90
2022-08-02T09:05:19.806Z,99.90
2022-08-02T09:07:51.367Z,99.90
2022-08-02T09:10:34.754Z,99.90
2022-08-02T09:13:38.284Z,99.90
2022-08-02T09:16:12.228Z,99.90
2022-08-02T09:18:42.667Z,99.90
2022-08-02T09:21:11.237Z,99.90
2022-08-02T09:23:43.075Z,99.90
2022-08-02T09:26:12.007Z,99.90
2022-08-02T09:28:41.130Z,99.90
2022-08-02T09:31:09.001Z,99.90
2022-08-02T09:33:37.903Z,99.90
2022-08-02T09:36:08.396Z,99.90
2022-08-02T09:38:38.039Z,99.90
2022-08-02T09:41:14.349Z,99.90
2022-08-02T09:44:03.313Z,99.90
2022-08-02T09:46:38.875Z,99.90
2022-08-02T09:49:07.004Z,99.90
2022-08-02T09:51:36.086Z,99.90
2022-08-02T09:54:08.809Z,99.60
2022-08-02T09:56:44.305Z,99.10
2022-08-02T09:59:12.406Z,99.90
2022-08-02T10:01:45.139Z,98.80
2022-08-02T10:04:24.640Z,98.30
2022-08-02T10:06:56.633Z,97.60
2022-08-02T10:09:29.506Z,97.60
2022-08-02T10:11:58.016Z,96.70
2022-08-02T10:14:26.826Z,96.70
2022-08-02T10:16:55.657Z,95.90
2022-08-02T10:20:02.373Z,96.10
2022-08-02T10:22:12.807Z,95.30
2022-08-02T10:24:47.552Z,95.00
2022-08-02T10:27:16.995Z,94.80
2022-08-02T10:29:54.347Z,94.60
2022-08-02T10:32:43.827Z,93.90
2022-08-02T10:35:19.563Z,94.30
2022-08-02T10:37:55.243Z,94.20
2022-08-02T10:40:27.416Z,95.30
2022-08-02T10:43:01.643Z,94.20
2022-08-02T10:45:31.026Z,93.70
2022-08-02T10:48:01.732Z,94.20
2022-08-02T10:50:47.928Z,93.40
2022-08-02T10:53:31.713Z,94.00
2022-08-02T10:56:09.426Z,93.80
2022-08-02T10:58:37.434Z,94.20
2022-08-02T11:01:06.498Z,95.10
2022-08-02T11:03:39.560Z,95.20
2022-08-02T11:06:07.630Z,95.10
2022-08-02T11:08:35.574Z,94.70
2022-08-02T11:11:54.518Z,94.00
2022-08-02T11:14:21.398Z,94.20
2022-08-02T11:16:58.216Z,92.90
2022-08-02T11:19:26.608Z,92.90
2022-08-02T11:22:07.765Z,92.60
2022-08-02T11:24:37.690Z,93.00
2022-08-02T11:27:10.087Z,91.90
2022-08-02T11:29:42.031Z,91.20
2022-08-02T11:32:16.051Z,91.30
2022-08-02T11:34:44.244Z,92.50
2022-08-02T11:37:12.615Z,91.90
2022-08-02T11:39:40.458Z,90.40
2022-08-02T11:42:08.359Z,90.70
2022-08-02T11:44:42.965Z,90.30
2022-08-02T11:47:10.953Z,90.30
2022-08-02T11:49:39.290Z,90.80
2022-08-02T11:52:08.485Z,92.20
2022-08-02T11:54:37.560Z,89.80
2022-08-02T11:57:22.151Z,89.90
2022-08-02T11:59:51.023Z,89.40
2022-08-02T12:02:19.330Z,89.00
2022-08-02T12:04:57.334Z,90.10
2022-08-02T12:07:34.423Z,90.60
2022-08-02T12:10:05.998Z,89.90
2022-08-02T12:12:33.870Z,89.70
2022-08-02T12:15:01.703Z,90.40
2022-08-02T12:17:48.279Z,90.30
2022-08-02T12:20:16.233Z,88.80
2022-08-02T12:22:44.031Z,88.00
2022-08-02T12:25:33.889Z,87.60
2022-08-02T12:28:20.890Z,87.20
2022-08-02T12:30:59.199Z,87.40
2022-08-02T12:33:31.005Z,87.40
2022-08-02T12:35:58.939Z,88.20
2022-08-02T12:38:26.772Z,82.50
2022-08-02T12:40:55.310Z,83.80
2022-08-02T12:43:25.254Z,83.30
2022-08-02T12:45:54.921Z,82.30
2022-08-02T12:48:48.170Z,82.20
2022-08-02T12:51:24.646Z,84.60
2022-08-02T12:54:17.758Z,84.80
2022-08-02T12:56:46.369Z,82.90
2022-08-02T12:59:14.523Z,84.30
2022-08-02T13:01:42.841Z,83.10
2022-08-02T13:04:13.829Z,83.60
2022-08-02T13:06:45.329Z,84.40
2022-08-02T13:09:14.773Z,85.50
2022-08-02T13:11:44.061Z,86.10
2022-08-02T13:14:12.930Z,86.00
2022-08-02T13:16:41.230Z,85.70
2022-08-02T13:19:09.091Z,86.10
2022-08-02T13:21:41.449Z,81.10
2022-08-02T13:24:39.447Z,81.60
2022-08-02T13:27:10.075Z,77.10
2022-08-02T13:29:38.482Z,77.00
2022-08-02T13:32:06.468Z,77.70
2022-08-02T13:34:34.342Z,78.10
2022-08-02T13:37:02.298Z,78.60
2022-08-02T13:39:30.270Z,80.30
2022-08-02T13:41:58.150Z,80.60
2022-08-02T13:44:26.108Z,83.10
2022-08-02T13:46:53.938Z,82.70
2022-08-02T13:49:51.112Z,80.90
2022-08-02T13:52:10.418Z,82.40
2022-08-02T13:54:38.466Z,80.60
2022-08-02T13:57:06.355Z,79.70
2022-08-02T13:59:55.894Z,78.70
2022-08-02T14:02:22.045Z,79.30
2022-08-02T14:04:50.021Z,78.50
2022-08-02T14:07:17.914Z,77.10
2022-08-02T14:09:45.757Z,78.80
2022-08-02T14:12:14.511Z,79.70
2022-08-02T14:14:42.727Z,78.20
2022-08-02T14:17:12.173Z,76.30
2022-08-02T14:19:40.125Z,78.00
2022-08-02T14:22:11.766Z,79.20
2022-08-02T14:24:40.622Z,77.10
2022-08-02T14:27:08.614Z,78.10
2022-08-02T14:29:36.625Z,78.90
2022-08-02T14:32:04.613Z,78.60
2022-08-02T14:34:32.554Z,79.50
2022-08-02T14:37:00.384Z,79.20
2022-08-02T14:39:28.236Z,78.80
2022-08-02T14:42:11.823Z,79.10
2022-08-02T14:44:39.830Z,78.50
2022-08-02T14:47:07.714Z,79.80
2022-08-02T14:49:38.318Z,77.60
2022-08-02T14:52:09.545Z,78.20
2022-08-02T14:54:37.523Z,78.20
2022-08-02T14:57:05.503Z,77.30
2022-08-02T14:59:33.376Z,75.70
2022-08-02T15:02:02.245Z,76.80
2022-08-02T15:04:34.133Z,76.30
2022-08-02T15:07:08.988Z,75.60
2022-08-02T15:09:39.568Z,76.60
2022-08-02T15:12:08.262Z,76.30
2022-08-02T15:14:36.109Z,77.00
2022-08-02T15:17:04.087Z,75.40
2022-08-02T15:19:57.804Z,76.10
2022-08-02T15:22:20.105Z,75.50
2022-08-02T15:24:48.507Z,76.30
2022-08-02T15:27:16.790Z,75.60
2022-08-02T15:29:45.159Z,76.20
2022-08-02T15:32:13.599Z,74.80
2022-08-02T15:34:41.654Z,76.00
2022-08-02T15:37:09.644Z,74.60
2022-08-02T15:39:37.661Z,75.90
2022-08-02T15:42:05.552Z,74.60
2022-08-02T15:44:33.485Z,75.30
2022-08-02T15:47:01.335Z,75.30
2022-08-02T15:49:29.349Z,75.60
2022-08-02T15:51:57.220Z,77.10
2022-08-02T15:54:25.265Z,76.50
2022-08-02T15:56:53.145Z,76.10
2022-08-02T15:59:21.034Z,75.50
2022-08-02T16:01:49.584Z,75.90
2022-08-02T16:04:17.881Z,75.90
2022-08-02T16:06:45.721Z,75.90
2022-08-02T16:09:13.602Z,76.00
2022-08-02T16:11:41.597Z,74.50
2022-08-02T16:14:09.477Z,76.00
2022-08-02T16:16:37.999Z,76.10
2022-08-02T16:19:46.006Z,75.30
2022-08-02T16:21:54.813Z,75.20
2022-08-02T16:24:22.743Z,76.80
2022-08-02T16:26:53.167Z,76.70
2022-08-02T16:29:21.074Z,77.00
2022-08-02T16:31:49.331Z,75.40
2022-08-02T16:34:17.662Z,76.00
2022-08-02T16:36:45.654Z,75.90
2022-08-02T16:39:13.648Z,76.40
2022-08-02T16:41:50.742Z,76.60
2022-08-02T16:44:29.470Z,76.60
2022-08-02T16:47:12.173Z,76.90
2022-08-02T16:50:05.060Z,76.10
2022-08-02T16:52:31.556Z,76.70
2022-08-02T16:55:00.010Z,76.50
2022-08-02T17:00:16.331Z,77.30
2022-08-02T17:02:47.076Z,77.40
2022-08-02T17:05:15.618Z,77.80
2022-08-02T17:08:07.563Z,78.30
2022-08-02T17:10:32.120Z,77.50
2022-08-02T17:13:11.730Z,78.20
2022-08-02T17:16:01.362Z,77.40
2022-08-02T17:18:31.715Z,78.40
2022-08-02T17:21:02.494Z,79.00
2022-08-02T17:24:05.624Z,78.80
2022-08-02T17:26:18.276Z,78.50
2022-08-02T17:29:07.312Z,78.30
2022-08-02T17:31:43.116Z,78.80
2022-08-02T17:34:12.635Z,79.70
2022-08-02T17:36:40.594Z,80.20
2022-08-02T17:39:08.894Z,80.80
2022-08-02T17:41:49.171Z,80.90
2022-08-02T17:44:37.596Z,81.30
2022-08-02T17:47:07.416Z,81.20
2022-08-02T17:49:44.381Z,80.70
2022-08-02T17:52:50.422Z,81.30
2022-08-02T17:55:04.535Z,81.60
2022-08-02T17:57:57.234Z,80.90
2022-08-02T18:00:21.363Z,81.90
2022-08-02T18:02:52.759Z,81.70
2022-08-02T18:05:38.998Z,81.70
2022-08-02T18:08:09.759Z,82.70
2022-08-02T18:10:38.028Z,82.10
2022-08-02T18:13:06.305Z,82.40
2022-08-02T18:15:35.568Z,82.70
2022-08-02T18:18:03.830Z,83.70
2022-08-02T18:20:34.586Z,84.10
2022-08-02T18:23:02.438Z,86.10
2022-08-02T18:25:37.316Z,84.30
2022-08-02T18:28:12.011Z,85.50
2022-08-02T18:30:39.842Z,87.10
2022-08-02T18:33:59.556Z,90.00
2022-08-02T18:35:56.613Z,90.50
2022-08-02T18:38:27.853Z,91.40
2022-08-02T18:40:56.349Z,90.70
2022-08-02T18:43:25.764Z,91.10
2022-08-02T18:46:07.303Z,89.00
2022-08-02T18:48:46.264Z,90.70
2022-08-02T18:51:16.314Z,88.00
2022-08-02T18:53:52.010Z,89.00
2022-08-02T18:56:24.539Z,90.40
2022-08-02T18:58:56.323Z,91.30
2022-08-02T19:01:32.066Z,92.10
2022-08-02T19:04:02.835Z,92.30
2022-08-02T19:06:31.403Z,91.10
2022-08-02T19:09:12.629Z,91.00
2022-08-02T19:11:48.177Z,91.30
2022-08-02T19:14:19.063Z,91.20
2022-08-02T19:16:52.350Z,91.50
2022-08-02T19:19:21.543Z,91.60
2022-08-02T19:22:18.162Z,92.30
2022-08-02T19:24:38.556Z,92.20
2022-08-02T19:27:13.940Z,92.70
2022-08-02T19:29:48.963Z,93.10
2022-08-02T19:32:41.792Z,93.20
2022-08-02T19:35:19.286Z,93.50
2022-08-02T19:37:58.948Z,93.80
2022-08-02T19:40:28.976Z,93.60
2022-08-02T19:44:22.909Z,94.20
2022-08-02T19:45:49.615Z,94.10
2022-08-02T19:48:35.503Z,94.50
2022-08-02T19:51:08.105Z,94.90
2022-08-02T19:53:46.548Z,94.90
2022-08-02T19:56:20.439Z,94.90
2022-08-02T19:58:51.560Z,94.80
2022-08-02T20:01:25.294Z,94.90
2022-08-02T20:03:55.465Z,94.90
2022-08-02T20:06:28.553Z,95.20
2022-08-02T20:09:01.284Z,95.20
2022-08-02T20:11:34.804Z,95.50
2022-08-02T20:14:04.427Z,95.90
2022-08-02T20:16:33.339Z,96.30
2022-08-02T20:19:02.902Z,96.40
2022-08-02T20:21:36.651Z,96.20
2022-08-02T20:24:06.662Z,96.50
2022-08-02T20:26:35.701Z,97.50
2022-08-02T20:29:06.160Z,97.80
2022-08-02T20:31:44.226Z,98.20
2022-08-02T20:34:14.022Z,98.40
2022-08-02T20:36:41.895Z,98.50
2022-08-02T20:39:09.743Z,98.60
2022-08-02T20:41:45.859Z,98.50
2022-08-02T20:44:16.270Z,98.60
2022-08-02T20:46:59.416Z,99.10
2022-08-02T20:49:41.784Z,99.50
2022-08-02T20:52:23.601Z,99.90
2022-08-02T20:54:52.464Z,99.90
2022-08-02T20:57:20.500Z,99.90
2022-08-02T21:00:08.925Z,99.90
2022-08-02T21:02:36.813Z,99.90
2022-08-02T21:05:07.759Z,99.90
2022-08-02T21:07:43.278Z,99.90
2022-08-02T21:10:15.884Z,99.90
2022-08-02T21:12:45.378Z,99.90
2022-08-02T21:15:13.517Z,99.90
2022-08-02T21:17:44.565Z,99.90
2022-08-02T21:20:27.453Z,99.90
2022-08-02T21:22:57.838Z,99.90
2022-08-02T21:25:42.453Z,99.90
2022-08-02T21:28:17.753Z,99.90
2022-08-02T21:30:46.205Z,99.90
2022-08-02T21:33:23.124Z,99.90
2022-08-02T21:36:02.087Z,99.90
2022-08-02T21:38:35.560Z,99.90
2022-08-02T21:41:11.324Z,99.90
2022-08-02T21:43:43.064Z,99.90
2022-08-02T21:46:14.630Z,99.90
2022-08-02T21:48:43.287Z,99.90
2022-08-02T21:51:15.893Z,99.90
2022-08-02T21:54:16.844Z,99.90
2022-08-02T21:56:35.860Z,99.90
2022-08-02T21:59:04.762Z,99.90
2022-08-02T22:01:52.367Z,99.90
2022-08-02T22:04:21.383Z,99.90
2022-08-02T22:06:49.471Z,99.90
2022-08-02T22:09:44.081Z,99.90
2022-08-02T22:12:10.149Z,99.90
2022-08-02T22:14:41.101Z,99.90
2022-08-02T22:17:13.505Z,99.90
2022-08-02T22:19:53.852Z,99.90
2022-08-02T22:22:28.066Z,99.90
2022-08-02T22:24:57.136Z,99.90
2022-08-02T22:28:35.976Z,99.90
2022-08-02T22:30:13.486Z,99.90
2022-08-02T22:33:01.912Z,99.90
2022-08-02T22:35:43.423Z,99.90
2022-08-02T22:38:16.326Z,99.90
2022-08-02T22:40:50.280Z,99.90
2022-08-02T22:43:22.927Z,99.90
2022-08-02T22:45:51.288Z,99.90
2022-08-02T22:48:20.352Z,99.90
2022-08-02T22:50:48.498Z,99.90
2022-08-02T22:53:18.385Z,99.90
2022-08-02T22:56:03.435Z,99.90
2022-08-02T22:58:31.242Z,99.90
2022-08-02T22:58:48.874Z,77.30
2022-08-02T23:00:59.751Z,99.90
2022-08-02T23:03:27.681Z,99.90
2022-08-02T23:05:55.708Z,99.90
2022-08-02T23:08:23.573Z,99.90
2022-08-02T23:10:51.949Z,99.90
2022-08-02T23:13:19.865Z,99.90
2022-08-02T23:16:06.347Z,99.90
2022-08-02T23:18:53.037Z,99.90
2022-08-02T23:21:45.832Z,99.90
2022-08-02T23:24:08.803Z,99.90
2022-08-02T23:26:36.590Z,99.90
2022-08-02T23:29:04.451Z,99.90
2022-08-02T23:31:33.539Z,99.90
2022-08-02T23:34:06.897Z,99.90
2022-08-02T23:36:35.277Z,99.90
2022-08-02T23:39:03.250Z,99.90
2022-08-02T23:41:34.076Z,99.90
2022-08-02T23:44:13.569Z,99.90
2022-08-02T23:46:46.171Z,99.90
2022-08-02T23:49:14.434Z,99.90
2022-08-02T23:51:42.514Z,99.90
2022-08-02T23:54:10.713Z,99.90
2022-08-02T23:56:40.248Z,99.90
2022-08-02T23:59:11.499Z,99.90
